createdAt,value
2022-09-13T00:02:20.254Z,7.50
2022-09-13T00:04:47.157Z,6.93
2022-09-13T00:07:14.104Z,7.07
2022-09-13T00:09:41.097Z,6.90
2022-09-13T00:12:08.107Z,8.23
2022-09-13T00:14:34.992Z,7.73
2022-09-13T00:17:02.092Z,8.07
2022-09-13T00:19:29.047Z,6.70
2022-09-13T00:21:55.937Z,7.37
2022-09-13T00:24:22.917Z,7.53
2022-09-13T00:26:50.137Z,7.57
2022-09-13T00:29:17.165Z,7.90
2022-09-13T00:31:44.197Z,8.93
2022-09-13T00:34:11.143Z,6.80
2022-09-13T00:36:38.052Z,7.20
2022-09-13T00:39:05.033Z,7.10
2022-09-13T00:41:32.063Z,7.07
2022-09-13T00:44:02.097Z,6.97
2022-09-13T00:46:43.801Z,7.70
2022-09-13T00:49:13.452Z,6.90
2022-09-13T00:51:43.862Z,7.50
2022-09-13T00:54:13.607Z,7.57
2022-09-13T00:56:47.583Z,6.70
2022-09-13T00:59:32.382Z,7.20
2022-09-13T01:02:02.344Z,8.37
2022-09-13T01:04:33.552Z,7.90
2022-09-13T01:07:07.323Z,7.10
2022-09-13T01:09:40.242Z,7.87
2022-09-13T01:12:36.562Z,7.97
2022-09-13T01:15:06.814Z,8.57
2022-09-13T01:17:34.433Z,7.50
2022-09-13T01:20:03.743Z,7.83
2022-09-13T01:22:52.456Z,7.33
2022-09-13T01:26:02.814Z,7.33
2022-09-13T01:29:22.658Z,7.20
2022-09-13T01:32:20.498Z,8.57
2022-09-13T01:35:02.522Z,6.97
2022-09-13T01:37:56.267Z,7.83
2022-09-13T01:40:32.789Z,7.00
2022-09-13T01:43:33.547Z,7.63
2022-09-13T01:46:26.097Z,7.43
2022-09-13T01:49:17.845Z,7.90
2022-09-13T01:51:50.337Z,9.00
2022-09-13T01:54:26.157Z,8.73
2022-09-13T01:57:13.449Z,9.17
2022-09-13T02:00:00.088Z,10.50
2022-09-13T02:03:04.717Z,9.93
2022-09-13T02:06:09.137Z,10.50
2022-09-13T02:09:02.325Z,10.10
2022-09-13T02:11:29.938Z,11.00
2022-09-13T02:14:11.603Z,9.73
2022-09-13T02:16:48.109Z,10.20
2022-09-13T02:19:31.625Z,9.47
2022-09-13T02:22:01.408Z,9.50
2022-09-13T02:24:43.438Z,8.97
2022-09-13T02:27:20.561Z,8.50
2022-09-13T02:29:56.038Z,8.03
2022-09-13T02:32:33.713Z,9.30
2022-09-13T02:35:06.157Z,8.70
2022-09-13T02:37:36.726Z,9.70
2022-09-13T02:40:11.453Z,10.47
2022-09-13T02:42:51.972Z,9.43
2022-09-13T02:45:30.229Z,9.33
2022-09-13T02:48:05.147Z,9.80
2022-09-13T02:51:07.537Z,9.33
2022-09-13T02:53:51.492Z,10.30
2022-09-13T02:56:46.156Z,8.10
2022-09-13T02:59:22.413Z,7.43
2022-09-13T03:02:22.325Z,7.60
2022-09-13T03:04:51.852Z,8.17
2022-09-13T03:07:18.902Z,9.03
2022-09-13T03:09:55.023Z,8.77
2022-09-13T03:12:30.423Z,8.20
2022-09-13T03:15:25.889Z,8.83
2022-09-13T03:18:32.652Z,9.33
2022-09-13T03:21:20.252Z,8.77
2022-09-13T03:24:47.597Z,9.67
2022-09-13T03:27:31.699Z,9.50
2022-09-13T03:30:09.326Z,8.40
2022-09-13T03:32:44.834Z,8.47
2022-09-13T03:35:27.067Z,9.20
2022-09-13T03:38:13.157Z,8.40
2022-09-13T03:40:53.835Z,7.83
2022-09-13T03:43:23.399Z,7.77
2022-09-13T03:45:57.374Z,7.30
2022-09-13T03:48:25.293Z,7.47
2022-09-13T03:50:53.097Z,7.90
2022-09-13T03:53:28.013Z,6.90
2022-09-13T03:55:54.963Z,7.10
2022-09-13T03:58:23.152Z,6.73
2022-09-13T04:00:50.268Z,6.03
2022-09-13T04:03:17.611Z,6.37
2022-09-13T04:05:44.604Z,5.80
2022-09-13T04:08:11.547Z,6.43
2022-09-13T04:10:40.852Z,6.10
2022-09-13T04:13:07.803Z,6.03
2022-09-13T04:15:34.697Z,6.93
2022-09-13T04:18:01.878Z,6.40
2022-09-13T04:20:29.404Z,6.80
2022-09-13T04:22:57.732Z,8.00
2022-09-13T04:25:24.814Z,8.53
2022-09-13T04:28:00.075Z,6.33
2022-09-13T04:30:28.807Z,6.50
2022-09-13T04:32:57.968Z,6.57
2022-09-13T04:35:25.272Z,5.80
2022-09-13T04:37:57.216Z,6.30
2022-09-13T04:40:25.632Z,8.00
2022-09-13T04:42:52.655Z,7.47
2022-09-13T04:45:19.578Z,6.60
2022-09-13T04:47:54.320Z,9.40
2022-09-13T04:50:23.547Z,8.80
2022-09-13T04:52:52.232Z,9.53
2022-09-13T04:55:19.133Z,9.80
2022-09-13T04:57:46.147Z,10.30
2022-09-13T05:00:13.659Z,10.20
2022-09-13T05:02:40.713Z,10.17
2022-09-13T05:05:08.977Z,10.67
2022-09-13T05:07:35.958Z,9.70
2022-09-13T05:10:02.859Z,10.20
2022-09-13T05:12:29.802Z,11.60
2022-09-13T05:14:56.792Z,11.37
2022-09-13T05:17:23.832Z,10.70
2022-09-13T05:19:50.738Z,9.80
2022-09-13T05:22:17.697Z,9.50
2022-09-13T05:24:44.662Z,9.23
2022-09-13T05:27:11.573Z,8.60
2022-09-13T05:29:38.472Z,9.30
2022-09-13T05:32:05.437Z,8.50
2022-09-13T05:34:32.349Z,10.37
2022-09-13T05:36:59.358Z,8.80
2022-09-13T05:39:34.125Z,9.83
2022-09-13T05:42:10.872Z,9.50
2022-09-13T05:44:37.943Z,9.23
2022-09-13T05:47:05.822Z,9.67
2022-09-13T05:49:32.773Z,10.80
2022-09-13T05:51:59.687Z,10.50
2022-09-13T05:54:26.562Z,8.40
2022-09-13T05:56:57.616Z,8.90
2022-09-13T05:59:24.693Z,8.63
2022-09-13T06:01:51.743Z,7.90
2022-09-13T06:04:18.893Z,9.10
2022-09-13T06:06:45.874Z,8.70
2022-09-13T06:09:13.318Z,9.03
2022-09-13T06:11:40.643Z,9.07
2022-09-13T06:14:08.278Z,9.73
2022-09-13T06:16:36.974Z,10.77
2022-09-13T06:19:04.147Z,10.03
2022-09-13T06:21:32.863Z,9.80
2022-09-13T06:23:59.861Z,9.13
2022-09-13T06:26:28.820Z,9.10
2022-09-13T06:28:58.422Z,9.70
2022-09-13T06:31:28.833Z,9.87
2022-09-13T06:34:00.343Z,11.00
2022-09-13T06:36:28.337Z,9.60
2022-09-13T06:38:55.762Z,10.47
2022-09-13T06:41:25.083Z,10.00
2022-09-13T06:43:58.807Z,11.93
2022-09-13T06:46:28.894Z,11.13
2022-09-13T06:48:59.378Z,11.67
2022-09-13T06:51:27.165Z,13.07
2022-09-13T06:53:56.981Z,12.20
2022-09-13T06:56:33.653Z,13.60
2022-09-13T06:59:05.377Z,13.43
2022-09-13T07:01:35.903Z,15.00
2022-09-13T07:04:05.615Z,14.80
2022-09-13T07:06:36.252Z,14.03
2022-09-13T07:09:06.995Z,14.97
2022-09-13T07:11:38.249Z,16.13
2022-09-13T07:14:06.997Z,13.50
2022-09-13T07:16:37.778Z,15.20
2022-09-13T07:19:18.359Z,16.43
2022-09-13T07:21:45.447Z,13.87
2022-09-13T07:24:13.018Z,13.80
2022-09-13T07:26:40.017Z,13.87
2022-09-13T07:29:12.218Z,13.80
2022-09-13T07:31:42.097Z,14.50
2022-09-13T07:34:15.937Z,17.20
2022-09-13T07:36:43.138Z,15.33
2022-09-13T07:39:14.883Z,14.63
2022-09-13T07:41:44.404Z,16.40
2022-09-13T07:44:12.627Z,16.80
2022-09-13T07:46:42.092Z,17.40
2022-09-13T07:49:11.498Z,17.30
2022-09-13T07:51:41.475Z,16.87
2022-09-13T07:54:14.308Z,16.47
2022-09-13T07:56:42.457Z,16.63
2022-09-13T07:59:17.793Z,17.60
2022-09-13T08:01:48.990Z,18.80
2022-09-13T08:04:21.192Z,18.10
2022-09-13T08:06:48.500Z,20.37
2022-09-13T08:09:16.789Z,18.00
2022-09-13T08:11:47.283Z,17.70
2022-09-13T08:14:17.881Z,17.40
2022-09-13T08:16:45.039Z,17.43
2022-09-13T08:19:18.723Z,17.37
2022-09-13T08:21:46.150Z,17.67
2022-09-13T08:24:21.474Z,16.40
2022-09-13T08:26:49.303Z,16.50
2022-09-13T08:29:17.128Z,16.57
2022-09-13T08:31:44.995Z,16.20
2022-09-13T08:34:15.435Z,17.20
2022-09-13T08:36:43.731Z,16.90
2022-09-13T08:39:13.885Z,16.73
2022-09-13T08:41:42.459Z,16.00
2022-09-13T08:44:25.967Z,16.50
2022-09-13T08:47:28.024Z,15.50
2022-09-13T08:50:07.413Z,16.67
2022-09-13T08:52:41.652Z,14.60
2022-09-13T08:55:24.507Z,15.80
2022-09-13T08:58:26.333Z,15.63
2022-09-13T09:01:44.615Z,16.43
2022-09-13T09:04:27.882Z,14.90
2022-09-13T09:07:24.587Z,14.13
2022-09-13T09:09:58.614Z,14.17
2022-09-13T09:12:43.049Z,15.73
2022-09-13T09:15:35.472Z,15.87
2022-09-13T09:18:33.201Z,12.70
2022-09-13T09:21:04.275Z,15.73
2022-09-13T09:23:34.347Z,14.40
2022-09-13T09:26:18.876Z,13.77
2022-09-13T09:29:27.382Z,13.90
2022-09-13T09:32:18.922Z,13.63
2022-09-13T09:35:10.523Z,11.70
2022-09-13T09:37:39.702Z,10.90
2022-09-13T09:40:12.959Z,11.80
2022-09-13T09:42:47.664Z,11.50
2022-09-13T09:45:29.341Z,10.63
2022-09-13T09:48:01.864Z,10.60
2022-09-13T09:50:43.734Z,10.30
2022-09-13T09:53:25.629Z,10.13
2022-09-13T09:56:31.251Z,9.30
2022-09-13T09:58:58.284Z,9.77
2022-09-13T10:01:51.307Z,10.23
2022-09-13T10:04:23.055Z,8.30
2022-09-13T10:06:51.845Z,9.00
2022-09-13T10:09:21.919Z,7.87
2022-09-13T10:11:58.384Z,8.20
2022-09-13T10:14:46.195Z,8.03
2022-09-13T10:17:18.577Z,8.57
2022-09-13T10:20:00.062Z,9.00
2022-09-13T10:22:29.705Z,8.63
2022-09-13T10:25:23.314Z,8.80
2022-09-13T10:27:58.914Z,8.17
2022-09-13T10:30:56.057Z,7.73
2022-09-13T10:33:35.434Z,9.60
2022-09-13T10:36:25.097Z,8.90
2022-09-13T10:39:13.520Z,8.90
2022-09-13T10:41:45.968Z,8.23
2022-09-13T10:44:44.730Z,8.40
2022-09-13T10:47:23.364Z,9.40
2022-09-13T10:49:59.635Z,8.80
2022-09-13T10:53:00.349Z,8.70
2022-09-13T10:55:32.040Z,10.50
2022-09-13T10:58:01.839Z,9.00
2022-09-13T11:00:57.939Z,9.60
2022-09-13T11:03:49.951Z,10.00
2022-09-13T11:06:42.496Z,9.90
2022-09-13T11:09:58.384Z,8.53
2022-09-13T11:12:58.799Z,8.30
2022-09-13T11:15:41.272Z,8.97
2022-09-13T11:19:01.565Z,8.90
2022-09-13T11:24:59.605Z,7.50
2022-09-13T11:27:50.851Z,7.80
2022-09-13T11:30:29.153Z,8.00
2022-09-13T11:33:26.230Z,7.03
2022-09-13T11:36:21.029Z,6.97
2022-09-13T11:42:31.129Z,6.37
2022-09-13T11:45:06.595Z,6.30
2022-09-13T11:47:45.795Z,6.60
2022-09-13T11:50:39.931Z,6.40
2022-09-13T11:53:43.713Z,6.80
2022-09-13T11:56:34.820Z,5.57
2022-09-13T11:59:19.044Z,6.30
2022-09-13T12:01:52.563Z,6.40
2022-09-13T12:04:33.913Z,5.43
2022-09-13T12:07:10.815Z,5.50
2022-09-13T12:09:53.318Z,5.37
2022-09-13T12:12:22.154Z,5.13
2022-09-13T12:15:01.134Z,8.00
2022-09-13T12:18:05.763Z,6.80
2022-09-13T12:20:48.987Z,6.00
2022-09-13T12:23:32.035Z,6.83
2022-09-13T12:26:14.274Z,6.30
2022-09-13T12:28:49.612Z,5.67
2022-09-13T12:31:26.374Z,6.20
2022-09-13T12:33:56.018Z,6.27
2022-09-13T12:36:49.498Z,5.90
2022-09-13T12:39:28.504Z,6.67
2022-09-13T12:42:19.466Z,6.20
2022-09-13T12:44:46.304Z,5.27
2022-09-13T12:47:55.050Z,5.20
2022-09-13T12:50:48.265Z,6.10
2022-09-13T12:53:42.454Z,5.00
2022-09-13T12:56:40.025Z,4.93
2022-09-13T12:59:28.404Z,5.10
2022-09-13T13:01:55.975Z,4.47
2022-09-13T13:04:32.819Z,4.80
2022-09-13T13:07:04.305Z,5.20
2022-09-13T13:09:48.455Z,4.57
2022-09-13T13:12:34.297Z,5.27
2022-09-13T13:15:31.069Z,5.00
2022-09-13T13:17:58.104Z,5.00
2022-09-13T13:20:52.596Z,5.20
2022-09-13T13:23:35.746Z,4.80
2022-09-13T13:26:20.894Z,5.67
2022-09-13T13:28:47.997Z,4.77
2022-09-13T13:31:30.138Z,5.40
2022-09-13T13:34:14.412Z,4.53
2022-09-13T13:36:41.312Z,4.47
2022-09-13T13:39:23.304Z,4.60
2022-09-13T13:42:00.402Z,4.63
2022-09-13T13:44:27.587Z,5.33
2022-09-13T13:47:07.255Z,4.77
2022-09-13T13:49:38.856Z,4.33
2022-09-13T13:52:19.289Z,4.47
2022-09-13T13:54:46.085Z,4.97
2022-09-13T13:57:27.211Z,5.40
2022-09-13T14:00:11.659Z,6.00
2022-09-13T14:02:58.409Z,4.97
2022-09-13T14:06:16.627Z,5.03
2022-09-13T14:09:04.885Z,4.83
2022-09-13T14:12:08.013Z,5.03
2022-09-13T14:15:01.469Z,4.40
2022-09-13T14:18:08.257Z,4.53
2022-09-13T14:20:35.135Z,4.90
2022-09-13T14:23:20.799Z,5.20
2022-09-13T14:26:00.255Z,4.57
2022-09-13T14:28:28.048Z,5.13
2022-09-13T14:30:59.689Z,4.60
2022-09-13T14:33:35.158Z,5.03
2022-09-13T14:36:08.604Z,5.03
2022-09-13T14:38:36.711Z,4.70
2022-09-13T14:41:20.099Z,5.20
2022-09-13T14:43:50.019Z,4.80
2022-09-13T14:46:34.416Z,4.73
2022-09-13T14:49:07.371Z,5.13
2022-09-13T14:51:52.124Z,5.33
2022-09-13T14:54:31.754Z,5.00
2022-09-13T14:57:02.256Z,4.70
2022-09-13T14:59:42.304Z,5.07
2022-09-13T15:02:24.190Z,4.80
2022-09-13T15:04:56.505Z,5.10
2022-09-13T15:07:23.839Z,4.70
2022-09-13T15:09:56.984Z,4.47
2022-09-13T15:12:28.431Z,4.60
2022-09-13T15:15:22.485Z,5.43
2022-09-13T15:18:26.080Z,5.37
2022-09-13T15:21:13.871Z,4.80
2022-09-13T15:23:50.847Z,4.37
2022-09-13T15:26:22.855Z,4.20
2022-09-13T15:28:54.329Z,5.10
2022-09-13T15:31:29.315Z,5.30
2022-09-13T15:34:18.094Z,4.77
2022-09-13T15:36:47.814Z,5.00
2022-09-13T15:39:20.874Z,4.50
2022-09-13T15:42:00.537Z,5.10
2022-09-13T15:44:30.109Z,4.50
2022-09-13T15:47:05.105Z,4.63
2022-09-13T15:49:32.717Z,5.50
2022-09-13T15:52:05.835Z,4.57
2022-09-13T15:54:41.475Z,4.70
2022-09-13T15:57:26.249Z,5.60
2022-09-13T15:59:55.870Z,4.80
2022-09-13T16:02:25.892Z,6.10
2022-09-13T16:04:53.192Z,5.17
2022-09-13T16:07:21.756Z,5.40
2022-09-13T16:09:49.933Z,4.60
2022-09-13T16:12:19.229Z,4.97
2022-09-13T16:14:47.759Z,5.47
2022-09-13T16:17:24.857Z,4.83
2022-09-13T16:19:53.110Z,5.00
2022-09-13T16:22:20.885Z,4.93
2022-09-13T16:24:48.153Z,4.60
2022-09-13T16:27:18.374Z,5.00
2022-09-13T16:29:46.135Z,5.53
2022-09-13T16:32:13.577Z,5.03
2022-09-13T16:34:40.419Z,6.73
2022-09-13T16:37:07.368Z,6.60
2022-09-13T16:39:34.204Z,6.70
2022-09-13T16:42:01.217Z,6.67
2022-09-13T16:44:28.144Z,5.60
2022-09-13T16:46:55.132Z,6.40
2022-09-13T16:49:22.137Z,5.67
2022-09-13T16:51:49.290Z,6.80
2022-09-13T16:54:16.513Z,5.33
2022-09-13T16:56:43.491Z,6.13
2022-09-13T16:59:10.409Z,5.97
2022-09-13T17:01:37.616Z,6.50
2022-09-13T17:04:04.765Z,5.90
2022-09-13T17:06:31.747Z,6.47
2022-09-13T17:09:02.555Z,6.40
2022-09-13T17:11:35.548Z,7.07
2022-09-13T17:14:05.209Z,6.60
2022-09-13T17:16:40.833Z,6.30
2022-09-13T17:19:16.670Z,6.93
2022-09-13T17:21:45.088Z,6.50
2022-09-13T17:24:13.801Z,6.40
2022-09-13T17:26:42.736Z,6.10
2022-09-13T17:29:12.475Z,6.40
2022-09-13T17:31:40.418Z,6.60
2022-09-13T17:34:08.054Z,6.73
2022-09-13T17:36:35.012Z,7.33
2022-09-13T17:39:02.075Z,7.23
2022-09-13T17:41:28.989Z,8.63
2022-09-13T17:43:55.964Z,8.20
2022-09-13T17:46:29.119Z,8.60
2022-09-13T17:48:59.103Z,6.77
2022-09-13T17:51:30.569Z,7.97
2022-09-13T17:54:10.215Z,8.10
2022-09-13T17:56:40.829Z,7.47
2022-09-13T17:59:15.279Z,7.87
2022-09-13T18:01:48.443Z,7.83
2022-09-13T18:04:18.305Z,8.50
2022-09-13T18:06:46.091Z,7.90
2022-09-13T18:09:15.878Z,7.97
2022-09-13T18:11:43.834Z,8.10
2022-09-13T18:14:14.190Z,7.00
2022-09-13T18:16:42.802Z,8.07
2022-09-13T18:19:10.720Z,7.80
2022-09-13T18:21:38.328Z,8.07
2022-09-13T18:24:07.114Z,7.40
2022-09-13T18:26:34.969Z,7.90
2022-09-13T18:29:05.636Z,7.83
2022-09-13T18:31:35.708Z,8.10
2022-09-13T18:34:08.578Z,8.40
2022-09-13T18:36:37.480Z,7.60
2022-09-13T18:39:06.795Z,7.03
2022-09-13T18:41:37.759Z,8.33
2022-09-13T18:44:07.944Z,7.23
2022-09-13T18:46:36.115Z,8.20
2022-09-13T18:49:04.953Z,9.33
2022-09-13T18:51:42.150Z,8.60
2022-09-13T18:54:15.644Z,9.60
2022-09-13T18:56:42.608Z,8.60
2022-09-13T18:59:11.045Z,8.53
2022-09-13T19:01:42.126Z,8.67
2022-09-13T19:04:13.705Z,8.10
2022-09-13T19:06:44.404Z,8.57
2022-09-13T19:09:12.010Z,9.53
2022-09-13T19:11:46.809Z,8.20
2022-09-13T19:14:21.915Z,7.70
2022-09-13T19:16:49.734Z,7.60
2022-09-13T19:19:16.790Z,8.10
2022-09-13T19:21:43.993Z,8.40
2022-09-13T19:24:17.842Z,8.27
2022-09-13T19:26:48.005Z,9.23
2022-09-13T19:29:18.269Z,8.93
2022-09-13T19:31:48.493Z,8.47
2022-09-13T19:34:20.134Z,8.90
2022-09-13T19:36:50.934Z,8.20
2022-09-13T19:39:17.990Z,7.80
2022-09-13T19:41:45.014Z,9.23
2022-09-13T19:44:14.171Z,8.67
2022-09-13T19:46:42.911Z,9.13
2022-09-13T19:49:16.447Z,9.17
2022-09-13T19:51:51.345Z,10.27
2022-09-13T19:54:19.209Z,8.50
2022-09-13T19:56:46.502Z,9.30
2022-09-13T19:59:16.993Z,10.37
2022-09-13T20:01:46.345Z,8.63
2022-09-13T20:04:20.507Z,9.07
2022-09-13T20:06:52.366Z,9.67
2022-09-13T20:09:20.818Z,10.63
2022-09-13T20:11:48.996Z,9.90
2022-09-13T20:14:19.506Z,10.00
2022-09-13T20:16:47.731Z,9.23
2022-09-13T20:22:09.601Z,11.47
2022-09-13T20:24:36.653Z,10.33
2022-09-13T20:27:03.674Z,10.60
2022-09-13T20:29:32.165Z,11.50
2022-09-13T20:32:00.203Z,10.47
2022-09-13T20:34:28.245Z,10.23
2022-09-13T20:36:55.383Z,10.40
2022-09-13T20:39:22.301Z,10.53
2022-09-13T20:41:52.041Z,10.23
2022-09-13T20:44:19.029Z,10.43
2022-09-13T20:46:46.044Z,10.47
2022-09-13T20:49:13.014Z,10.37
2022-09-13T20:51:40.052Z,10.70
2022-09-13T20:54:07.855Z,10.40
2022-09-13T20:56:35.579Z,11.17
2022-09-13T20:59:03.852Z,11.63
2022-09-13T21:01:32.614Z,10.60
2022-09-13T21:04:00.807Z,10.40
2022-09-13T21:06:32.543Z,10.23
2022-09-13T21:09:02.869Z,10.60
2022-09-13T21:11:35.190Z,10.10
2022-09-13T21:14:06.082Z,10.30
2022-09-13T21:16:39.241Z,10.30
2022-09-13T21:19:07.505Z,9.80
2022-09-13T21:21:38.491Z,10.33
2022-09-13T21:24:10.046Z,10.17
2022-09-13T21:26:42.626Z,10.17
2022-09-13T21:29:11.769Z,9.50
2022-09-13T21:31:40.033Z,9.30
2022-09-13T21:34:14.700Z,10.40
2022-09-13T21:36:43.378Z,10.13
2022-09-13T21:39:10.424Z,10.67
2022-09-13T21:41:37.374Z,11.10
2022-09-13T21:44:05.329Z,10.80
2022-09-13T21:46:36.323Z,11.13
2022-09-13T21:49:07.415Z,9.53
2022-09-13T21:51:47.297Z,11.20
2022-09-13T21:54:19.954Z,10.47
2022-09-13T21:56:55.074Z,10.63
2022-09-13T21:59:24.106Z,10.60
2022-09-13T22:01:53.268Z,10.00
2022-09-13T22:04:25.570Z,10.27
2022-09-13T22:06:54.017Z,11.73
2022-09-13T22:09:27.474Z,10.80
2022-09-13T22:11:56.605Z,10.53
2022-09-13T22:14:23.876Z,9.90
2022-09-13T22:16:53.252Z,10.00
2022-09-13T22:19:25.065Z,9.73
2022-09-13T22:21:56.777Z,9.90
2022-09-13T22:24:27.220Z,9.80
2022-09-13T22:26:56.730Z,9.03
2022-09-13T22:29:24.229Z,9.63
2022-09-13T22:31:52.342Z,9.87
2022-09-13T22:34:23.480Z,9.27
2022-09-13T22:36:51.019Z,9.50
2022-09-13T22:39:18.576Z,10.30
2022-09-13T22:41:45.805Z,10.17
2022-09-13T22:44:13.453Z,10.60
2022-09-13T22:46:44.152Z,10.07
2022-09-13T22:49:17.953Z,11.60
2022-09-13T22:51:46.752Z,10.90
2022-09-13T22:54:15.981Z,10.33
2022-09-13T22:56:43.013Z,11.23
2022-09-13T22:59:17.889Z,10.20
2022-09-13T23:01:45.811Z,10.50
2022-09-13T23:04:12.879Z,10.77
2022-09-13T23:06:41.102Z,10.47
2022-09-13T23:09:09.022Z,11.40
2022-09-13T23:11:38.795Z,10.60
2022-09-13T23:14:13.101Z,11.53
2022-09-13T23:16:49.095Z,10.33
2022-09-13T23:19:17.663Z,11.00
2022-09-13T23:21:44.898Z,10.70
2022-09-13T23:24:16.196Z,10.70
2022-09-13T23:26:44.906Z,11.10
2022-09-13T23:29:15.098Z,11.20
2022-09-13T23:31:43.548Z,11.37
2022-09-13T23:34:12.773Z,11.20
2022-09-13T23:36:42.885Z,13.50
2022-09-13T23:39:16.746Z,12.20
2022-09-13T23:41:46.255Z,13.23
2022-09-13T23:44:13.617Z,12.40
2022-09-13T23:46:41.120Z,13.33
2022-09-13T23:49:08.130Z,13.70
2022-09-13T23:51:35.026Z,13.43
2022-09-13T23:54:02.317Z,12.60
2022-09-13T23:56:32.621Z,12.57
2022-09-13T23:59:02.544Z,10.97
